PWSweather.com
Personal Weather Stations
Station Observations

YeovilGB

Lat: 50.949, Lon: -2.627

Elevation: 70

Station Type: Vantage Pro

http://www.yeovil-weather.me.uk/

Latest ConditionsUpdated 5:30:03 PM GMT Sunday, Nov 19, 2017
Currently Today's Max Today's Min Today's Average
Temperature 44.7°F7.1°C 49.7°F9.8°C 38.4°F3.6°C 43.9°F6.6°C
Dew Point 40.8°F4.9°C 45.9°F7.7°C 37.4°F3.0°C 41.4°F5.2°C
Winds Calm Calm 2.3 mph S3.7 kmh S - 0.0 mph 0.0 kmh
Wind Gusts -- 3.5 mph5.6 kmh - -
Humidity 86% 97% 75% 91%
Pressure 30.24 in1024.0 mb 30.28 in1025.4 mb 30.20 in1022.7 mb -
Hour Temp Dew Point Humidity Winds Wind Gusts Pressure Precip Precip Rate Daily Precip Total
05:30 PM 44.7°F7.1°C 40.8°F4.9°C 86% Calm Calm -- 30.24 in1024.0 mb - 0.00 in0.0 mm 0.00 in0.0 mm
05:20 PM 45.1°F7.3°C 41.2°F5.1°C 86% Calm Calm -- 30.24 in1024.0 mb - 0.00 in0.0 mm 0.00 in0.0 mm
05:10 PM 45.5°F7.5°C 41.3°F5.2°C 85% Calm Calm -- 30.24 in1024.0 mb - 0.00 in0.0 mm 0.00 in0.0 mm
05:00 PM 46.0°F7.8°C 41.7°F5.4°C 85% Calm Calm -- 30.24 in1024.0 mb - 0.00 in0.0 mm 0.00 in0.0 mm
04:50 PM 46.4°F8.0°C 41.8°F5.4°C 84% Calm Calm -- 30.24 in1024.0 mb - 0.00 in0.0 mm 0.00 in0.0 mm
04:40 PM 46.7°F8.2°C 41.8°F5.4°C 83% Calm Calm -- 30.25 in1024.4 mb - 0.00 in0.0 mm 0.00 in0.0 mm
04:30 PM 47.1°F8.4°C 42.2°F5.7°C 83% Calm Calm -- 30.25 in1024.4 mb - 0.00 in0.0 mm 0.00 in0.0 mm
04:20 PM 47.4°F8.6°C 42.2°F5.7°C 82% Calm Calm -- 30.25 in1024.4 mb - 0.00 in0.0 mm 0.00 in0.0 mm
04:10 PM 47.5°F8.6°C 42.3°F5.7°C 82% Calm Calm -- 30.25 in1024.4 mb - 0.00 in0.0 mm 0.00 in0.0 mm
04:00 PM 47.6°F8.7°C 42.4°F5.8°C 82% Calm Calm -- 30.25 in1024.4 mb - 0.00 in0.0 mm 0.00 in0.0 mm
03:50 PM 47.6°F8.7°C 42.1°F5.6°C 81% Calm Calm -- 30.25 in1024.4 mb - 0.00 in0.0 mm 0.00 in0.0 mm
03:40 PM 47.7°F8.7°C 41.8°F5.4°C 80% Calm Calm -- 30.25 in1024.4 mb - 0.00 in0.0 mm 0.00 in0.0 mm
03:30 PM 47.7°F8.7°C 41.8°F5.4°C 80% Calm Calm -- 30.26 in1024.7 mb - 0.00 in0.0 mm 0.00 in0.0 mm
03:20 PM 47.7°F8.7°C 41.8°F5.4°C 80% Calm Calm -- 30.25 in1024.4 mb - 0.00 in0.0 mm 0.00 in0.0 mm
03:10 PM 47.6°F8.7°C 41.8°F5.4°C 80% Calm Calm -- 30.26 in1024.7 mb - 0.00 in0.0 mm 0.00 in0.0 mm
03:00 PM 47.7°F8.7°C 41.8°F5.4°C 80% Calm Calm -- 30.26 in1024.7 mb - 0.00 in0.0 mm 0.00 in0.0 mm
02:50 PM 48.0°F8.9°C 41.7°F5.4°C 79% Calm Calm -- 30.26 in1024.7 mb - 0.00 in0.0 mm 0.00 in0.0 mm
02:40 PM 48.2°F9.0°C 42.0°F5.6°C 79% Calm Calm -- 30.26 in1024.7 mb - 0.00 in0.0 mm 0.00 in0.0 mm
02:30 PM 48.3°F9.1°C 41.8°F5.4°C 78% Calm Calm -- 30.26 in1024.7 mb - 0.00 in0.0 mm 0.00 in0.0 mm
02:20 PM 48.4°F9.1°C 41.9°F5.5°C 78% Calm Calm -- 30.26 in1024.7 mb - 0.00 in0.0 mm 0.00 in0.0 mm
02:10 PM 48.5°F9.2°C 41.3°F5.2°C 76% Calm Calm -- 30.26 in1024.7 mb - 0.00 in0.0 mm 0.00 in0.0 mm
02:00 PM 48.7°F9.3°C 41.8°F5.4°C 77% Calm Calm -- 30.26 in1024.7 mb - 0.00 in0.0 mm 0.00 in0.0 mm
01:50 PM 48.5°F9.2°C 41.3°F5.2°C 76% Calm Calm -- 30.25 in1024.4 mb - 0.00 in0.0 mm 0.00 in0.0 mm
01:40 PM 48.6°F9.2°C 41.7°F5.4°C 77% Calm Calm -- 30.25 in1024.4 mb - 0.00 in0.0 mm 0.00 in0.0 mm
01:30 PM 48.9°F9.4°C 41.3°F5.2°C 75% 2.3 mph S3.7 kmh S 3.5 mph5.6 kmh 30.26 in1024.7 mb - 0.00 in0.0 mm 0.00 in0.0 mm
01:20 PM 49.0°F9.4°C 41.8°F5.4°C 76% Calm Calm 1.2 mph1.9 kmh 30.26 in1024.7 mb - 0.00 in0.0 mm 0.00 in0.0 mm
01:10 PM 49.3°F9.6°C 42.1°F5.6°C 76% Calm Calm 1.2 mph1.9 kmh 30.27 in1025.1 mb - 0.00 in0.0 mm 0.00 in0.0 mm
01:00 PM 49.7°F9.8°C 42.8°F6.0°C 77% Calm Calm 3.5 mph5.6 kmh 30.27 in1025.1 mb - 0.00 in0.0 mm 0.00 in0.0 mm
12:50 PM 49.6°F9.8°C 43.4°F6.3°C 79% Calm Calm -- 30.27 in1025.1 mb - 0.00 in0.0 mm 0.00 in0.0 mm
12:40 PM 49.3°F9.6°C 43.4°F6.3°C 80% Calm Calm -- 30.27 in1025.1 mb - 0.00 in0.0 mm 0.00 in0.0 mm
12:30 PM 48.8°F9.3°C 43.2°F6.2°C 81% Calm Calm 1.2 mph1.9 kmh 30.27 in1025.1 mb - 0.00 in0.0 mm 0.00 in0.0 mm
12:20 PM 48.5°F9.2°C 43.9°F6.6°C 84% Calm Calm -- 30.27 in1025.1 mb - 0.00 in0.0 mm 0.00 in0.0 mm
12:10 PM 47.7°F8.7°C 44.3°F6.8°C 88% Calm Calm -- 30.27 in1025.1 mb - 0.00 in0.0 mm 0.00 in0.0 mm
12:00 PM 46.9°F8.3°C 44.1°F6.7°C 90% Calm Calm -- 30.28 in1025.4 mb - 0.00 in0.0 mm 0.00 in0.0 mm
11:50 AM 46.2°F7.9°C 44.3°F6.8°C 93% Calm Calm -- 30.28 in1025.4 mb - 0.00 in0.0 mm 0.00 in0.0 mm
11:40 AM 45.4°F7.4°C 44.3°F6.8°C 96% Calm Calm -- 30.28 in1025.4 mb - 0.00 in0.0 mm 0.00 in0.0 mm
11:30 AM 44.3°F6.8°C 43.0°F6.1°C 95% Calm Calm -- 30.28 in1025.4 mb - 0.00 in0.0 mm 0.00 in0.0 mm
11:20 AM 44.3°F6.8°C 43.0°F6.1°C 95% Calm Calm -- 30.28 in1025.4 mb - 0.00 in0.0 mm 0.00 in0.0 mm
11:10 AM 44.3°F6.8°C 43.2°F6.2°C 96% Calm Calm -- 30.28 in1025.4 mb - 0.00 in0.0 mm 0.00 in0.0 mm
11:00 AM 44.5°F6.9°C 43.4°F6.3°C 96% Calm Calm -- 30.28 in1025.4 mb - 0.00 in0.0 mm 0.00 in0.0 mm
10:50 AM 44.2°F6.8°C 43.2°F6.2°C 96% Calm Calm -- 30.28 in1025.4 mb - 0.00 in0.0 mm 0.00 in0.0 mm
10:40 AM 44.1°F6.7°C 43.0°F6.1°C 96% Calm Calm -- 30.28 in1025.4 mb - 0.00 in0.0 mm 0.00 in0.0 mm
10:30 AM 44.2°F6.8°C 43.4°F6.3°C 97% Calm Calm -- 30.28 in1025.4 mb - 0.00 in0.0 mm 0.00 in0.0 mm
10:20 AM 44.2°F6.8°C 43.4°F6.3°C 97% Calm Calm -- 30.27 in1025.1 mb - 0.00 in0.0 mm 0.00 in0.0 mm
10:10 AM 44.0°F6.7°C 43.2°F6.2°C 97% Calm Calm -- 30.27 in1025.1 mb - 0.00 in0.0 mm 0.00 in0.0 mm
10:00 AM 43.6°F6.4°C 42.9°F6.1°C 97% Calm Calm -- 30.27 in1025.1 mb - 0.00 in0.0 mm 0.00 in0.0 mm
09:50 AM 43.2°F6.2°C 42.4°F5.8°C 97% Calm Calm -- 30.27 in1025.1 mb - 0.00 in0.0 mm 0.00 in0.0 mm
09:40 AM 42.4°F5.8°C 41.7°F5.4°C 97% Calm Calm -- 30.27 in1025.1 mb - 0.00 in0.0 mm 0.00 in0.0 mm
09:30 AM 42.0°F5.6°C 41.2°F5.1°C 97% Calm Calm -- 30.27 in1025.1 mb - 0.00 in0.0 mm 0.00 in0.0 mm
09:20 AM 41.8°F5.4°C 41.0°F5.0°C 97% Calm Calm -- 30.26 in1024.7 mb - 0.00 in0.0 mm 0.00 in0.0 mm
09:10 AM 41.5°F5.3°C 40.7°F4.8°C 97% Calm Calm -- 30.27 in1025.1 mb - 0.00 in0.0 mm 0.00 in0.0 mm
09:00 AM 41.3°F5.2°C 40.5°F4.7°C 97% Calm Calm -- 30.27 in1025.1 mb - 0.00 in0.0 mm 0.00 in0.0 mm
08:50 AM 41.1°F5.1°C 40.3°F4.6°C 97% Calm Calm -- 30.26 in1024.7 mb - 0.00 in0.0 mm 0.00 in0.0 mm
08:40 AM 40.8°F4.9°C 40.0°F4.4°C 97% Calm Calm -- 30.26 in1024.7 mb - 0.00 in0.0 mm 0.00 in0.0 mm
08:30 AM 40.5°F4.7°C 39.7°F4.3°C 97% Calm Calm -- 30.26 in1024.7 mb - 0.00 in0.0 mm 0.00 in0.0 mm
08:20 AM 40.1°F4.5°C 39.3°F4.1°C 97% Calm Calm -- 30.26 in1024.7 mb - 0.00 in0.0 mm 0.00 in0.0 mm
08:10 AM 39.9°F4.4°C 39.1°F3.9°C 97% Calm Calm -- 30.27 in1025.1 mb - 0.00 in0.0 mm 0.00 in0.0 mm
08:00 AM 39.7°F4.3°C 38.9°F3.8°C 97% Calm Calm -- 30.26 in1024.7 mb - 0.00 in0.0 mm 0.00 in0.0 mm
07:50 AM 39.6°F4.2°C 38.8°F3.8°C 97% Calm Calm -- 30.26 in1024.7 mb - 0.00 in0.0 mm 0.00 in0.0 mm
07:40 AM 39.4°F4.1°C 38.6°F3.7°C 97% Calm Calm -- 30.25 in1024.4 mb - 0.00 in0.0 mm 0.00 in0.0 mm
07:30 AM 39.3°F4.1°C 38.5°F3.6°C 97% Calm Calm -- 30.25 in1024.4 mb - 0.00 in0.0 mm 0.00 in0.0 mm
07:20 AM 39.3°F4.1°C 38.5°F3.6°C 97% Calm Calm -- 30.24 in1024.0 mb - 0.00 in0.0 mm 0.00 in0.0 mm
07:10 AM 39.1°F3.9°C 38.3°F3.5°C 97% Calm Calm -- 30.25 in1024.4 mb - 0.00 in0.0 mm 0.00 in0.0 mm
07:00 AM 38.8°F3.8°C 38.0°F3.3°C 97% Calm Calm -- 30.24 in1024.0 mb - 0.00 in0.0 mm 0.00 in0.0 mm
06:50 AM 38.6°F3.7°C 37.6°F3.1°C 96% Calm Calm -- 30.23 in1023.7 mb - 0.00 in0.0 mm 0.00 in0.0 mm
06:40 AM 38.4°F3.6°C 37.4°F3.0°C 96% Calm Calm -- 30.24 in1024.0 mb - 0.00 in0.0 mm 0.00 in0.0 mm
06:30 AM 38.4°F3.6°C 37.4°F3.0°C 96% Calm Calm -- 30.24 in1024.0 mb - 0.00 in0.0 mm 0.00 in0.0 mm
06:20 AM 38.6°F3.7°C 37.6°F3.1°C 96% Calm Calm -- 30.23 in1023.7 mb - 0.00 in0.0 mm 0.00 in0.0 mm
06:10 AM 38.8°F3.8°C 37.8°F3.2°C 96% Calm Calm -- 30.24 in1024.0 mb - 0.00 in0.0 mm 0.00 in0.0 mm
06:00 AM 38.9°F3.8°C 37.9°F3.3°C 96% Calm Calm -- 30.24 in1024.0 mb - 0.00 in0.0 mm 0.00 in0.0 mm
05:50 AM 39.1°F3.9°C 38.1°F3.4°C 96% Calm Calm -- 30.23 in1023.7 mb - 0.00 in0.0 mm 0.00 in0.0 mm
05:40 AM 39.2°F4.0°C 38.2°F3.4°C 96% Calm Calm -- 30.23 in1023.7 mb - 0.00 in0.0 mm 0.00 in0.0 mm
05:30 AM 39.3°F4.1°C 38.3°F3.5°C 96% Calm Calm -- 30.23 in1023.7 mb - 0.00 in0.0 mm 0.00 in0.0 mm
05:20 AM 39.6°F4.2°C 38.5°F3.6°C 96% Calm Calm -- 30.23 in1023.7 mb - 0.00 in0.0 mm 0.00 in0.0 mm
05:10 AM 39.8°F4.3°C 38.8°F3.8°C 96% Calm Calm -- 30.23 in1023.7 mb - 0.00 in0.0 mm 0.00 in0.0 mm
05:00 AM 40.0°F4.4°C 39.0°F3.9°C 96% Calm Calm -- 30.23 in1023.7 mb - 0.00 in0.0 mm 0.00 in0.0 mm
04:50 AM 40.1°F4.5°C 39.1°F3.9°C 96% Calm Calm -- 30.22 in1023.4 mb - 0.00 in0.0 mm 0.00 in0.0 mm
04:40 AM 40.1°F4.5°C 39.0°F3.9°C 96% Calm Calm -- 30.22 in1023.4 mb - 0.00 in0.0 mm 0.00 in0.0 mm
04:30 AM 40.0°F4.4°C 39.0°F3.9°C 96% Calm Calm -- 30.22 in1023.4 mb - 0.00 in0.0 mm 0.00 in0.0 mm
04:20 AM 40.1°F4.5°C 39.1°F3.9°C 96% Calm Calm -- 30.22 in1023.4 mb - 0.00 in0.0 mm 0.00 in0.0 mm
04:10 AM 40.4°F4.7°C 39.3°F4.1°C 96% Calm Calm -- 30.22 in1023.4 mb - 0.00 in0.0 mm 0.00 in0.0 mm
04:00 AM 40.5°F4.7°C 39.5°F4.2°C 96% Calm Calm -- 30.22 in1023.4 mb - 0.00 in0.0 mm 0.00 in0.0 mm
03:50 AM 40.8°F4.9°C 39.5°F4.2°C 95% Calm Calm -- 30.21 in1023.0 mb - 0.00 in0.0 mm 0.00 in0.0 mm
03:40 AM 41.1°F5.1°C 39.8°F4.3°C 95% Calm Calm -- 30.22 in1023.4 mb - 0.00 in0.0 mm 0.00 in0.0 mm
03:30 AM 41.3°F5.2°C 40.3°F4.6°C 96% Calm Calm -- 30.21 in1023.0 mb - 0.00 in0.0 mm 0.00 in0.0 mm
03:20 AM 41.5°F5.3°C 40.2°F4.6°C 95% Calm Calm -- 30.21 in1023.0 mb - 0.00 in0.0 mm 0.00 in0.0 mm
03:10 AM 41.8°F5.4°C 40.4°F4.7°C 95% Calm Calm -- 30.22 in1023.4 mb - 0.00 in0.0 mm 0.00 in0.0 mm
03:00 AM 42.0°F5.6°C 40.7°F4.8°C 95% Calm Calm -- 30.22 in1023.4 mb - 0.00 in0.0 mm 0.00 in0.0 mm
02:50 AM 42.3°F5.7°C 41.0°F5.0°C 95% Calm Calm -- 30.22 in1023.4 mb - 0.00 in0.0 mm 0.00 in0.0 mm
02:40 AM 42.6°F5.9°C 41.3°F5.2°C 95% Calm Calm -- 30.22 in1023.4 mb - 0.00 in0.0 mm 0.00 in0.0 mm
02:30 AM 42.9°F6.1°C 41.6°F5.3°C 95% Calm Calm -- 30.22 in1023.4 mb - 0.00 in0.0 mm 0.00 in0.0 mm
02:20 AM 43.2°F6.2°C 41.9°F5.5°C 95% Calm Calm -- 30.22 in1023.4 mb - 0.00 in0.0 mm 0.00 in0.0 mm
02:10 AM 43.7°F6.5°C 42.4°F5.8°C 95% Calm Calm -- 30.21 in1023.0 mb - 0.00 in0.0 mm 0.00 in0.0 mm
02:00 AM 44.1°F6.7°C 42.8°F6.0°C 95% Calm Calm -- 30.21 in1023.0 mb - 0.00 in0.0 mm 0.00 in0.0 mm
01:50 AM 44.3°F6.8°C 43.0°F6.1°C 95% Calm Calm -- 30.20 in1022.7 mb - 0.00 in0.0 mm 0.00 in0.0 mm
01:40 AM 44.6°F7.0°C 43.3°F6.3°C 95% Calm Calm -- 30.20 in1022.7 mb - 0.00 in0.0 mm 0.00 in0.0 mm
01:30 AM 44.8°F7.1°C 43.7°F6.5°C 96% Calm Calm -- 30.20 in1022.7 mb - 0.00 in0.0 mm 0.00 in0.0 mm
01:20 AM 44.9°F7.2°C 43.6°F6.4°C 95% Calm Calm -- 30.20 in1022.7 mb - 0.00 in0.0 mm 0.00 in0.0 mm
01:10 AM 45.2°F7.3°C 43.9°F6.6°C 95% Calm Calm -- 30.20 in1022.7 mb - 0.00 in0.0 mm 0.00 in0.0 mm
01:00 AM 45.5°F7.5°C 44.2°F6.8°C 95% Calm Calm -- 30.20 in1022.7 mb - 0.00 in0.0 mm 0.00 in0.0 mm
12:50 AM 46.0°F7.8°C 44.6°F7.0°C 95% Calm Calm -- 30.20 in1022.7 mb - 0.00 in0.0 mm 0.00 in0.0 mm
12:40 AM 46.5°F8.1°C 45.1°F7.3°C 95% Calm Calm -- 30.20 in1022.7 mb - 0.00 in0.0 mm 0.00 in0.0 mm
12:30 AM 46.8°F8.2°C 45.7°F7.6°C 96% Calm Calm -- 30.20 in1022.7 mb - 0.00 in0.0 mm 0.00 in0.0 mm
12:20 AM 46.9°F8.3°C 45.8°F7.7°C 96% Calm Calm -- 30.21 in1023.0 mb - 0.00 in0.0 mm 0.00 in0.0 mm
12:10 AM 47.0°F8.3°C 45.9°F7.7°C 96% Calm Calm -- 30.20 in1022.7 mb - 0.00 in0.0 mm 0.00 in0.0 mm
12:00 AM 47.0°F8.3°C 45.9°F7.7°C 96% Calm Calm -- 30.20 in1022.7 mb - 0.00 in0.0 mm 0.00 in0.0 mm